createdAt,value
2023-04-21T00:05:03.088Z,18.45
2023-04-21T00:10:08.739Z,23.77
2023-04-21T00:15:12.966Z,23.80
2023-04-21T00:20:18.487Z,20.30
2023-04-21T00:25:22.927Z,13.88
2023-04-21T00:30:27.338Z,16.20
2023-04-21T00:35:32.908Z,13.82
2023-04-21T00:40:38.288Z,18.05
2023-04-21T00:45:42.428Z,17.98
2023-04-21T00:50:47.903Z,21.67
2023-04-21T00:55:52.257Z,33.40
2023-04-21T01:00:56.833Z,33.90
2023-04-21T01:06:02.516Z,21.38
2023-04-21T01:11:12.245Z,20.55
2023-04-21T01:16:18.789Z,23.45
2023-04-21T01:21:24.897Z,55.28
2023-04-21T01:26:30.333Z,29.05
2023-04-21T01:31:34.541Z,20.00
2023-04-21T01:36:38.739Z,22.15
2023-04-21T01:41:44.224Z,27.77
2023-04-21T01:46:48.641Z,76.32
2023-04-21T01:51:52.712Z,70.63
2023-04-21T01:56:58.564Z,53.53
2023-04-21T02:02:03.222Z,36.85
2023-04-21T02:07:10.360Z,41.22
2023-04-21T02:12:15.960Z,21.40
2023-04-21T02:17:20.067Z,26.17
2023-04-21T02:22:24.421Z,28.02
2023-04-21T02:27:31.374Z,29.55
2023-04-21T02:32:37.019Z,23.98
2023-04-21T02:37:41.816Z,21.05
2023-04-21T02:42:55.746Z,28.52
2023-04-21T02:47:59.909Z,22.10
2023-04-21T02:53:04.082Z,27.00
2023-04-21T02:58:10.453Z,22.35
2023-04-21T03:03:16.683Z,30.45
2023-04-21T03:08:20.907Z,30.45
2023-04-21T03:13:26.357Z,30.90
2023-04-21T03:18:30.488Z,46.03
2023-04-21T03:23:34.638Z,31.02
2023-04-21T03:28:40.085Z,21.73
2023-04-21T03:33:44.126Z,31.15
2023-04-21T03:38:48.588Z,29.52
2023-04-21T03:43:55.005Z,23.80
2023-04-21T03:48:59.883Z,23.88
2023-04-21T03:54:05.779Z,23.05
2023-04-21T03:59:11.226Z,34.85
2023-04-21T04:04:16.612Z,31.88
2023-04-21T04:09:21.399Z,44.85
2023-04-21T04:14:27.108Z,59.75
2023-04-21T04:19:34.068Z,38.05
2023-04-21T04:24:38.343Z,40.28
2023-04-21T04:29:46.553Z,33.00
2023-04-21T04:34:52.988Z,30.80
2023-04-21T04:39:58.161Z,35.08
2023-04-21T04:45:03.763Z,40.53
2023-04-21T04:50:08.729Z,22.55
2023-04-21T04:55:12.977Z,19.05
2023-04-21T05:00:18.862Z,20.38
2023-04-21T05:05:24.883Z,21.23
2023-04-21T05:10:29.617Z,18.83
2023-04-21T05:15:35.095Z,22.52
2023-04-21T05:20:42.507Z,19.80
2023-04-21T05:25:46.584Z,25.13
2023-04-21T05:30:52.024Z,25.30
2023-04-21T05:35:56.017Z,20.10
2023-04-21T05:40:59.979Z,22.38
2023-04-21T05:46:10.577Z,17.10
2023-04-21T05:51:16.609Z,22.05
2023-04-21T05:56:21.343Z,23.77
2023-04-21T06:01:26.836Z,34.47
2023-04-21T06:06:30.878Z,20.25
2023-04-21T06:11:35.056Z,18.20
2023-04-21T06:16:40.560Z,18.25
2023-04-21T06:21:44.854Z,20.08
2023-04-21T06:26:48.963Z,29.27
2023-04-21T06:31:54.354Z,18.45
2023-04-21T06:36:58.732Z,21.30
2023-04-21T06:42:02.840Z,17.98
2023-04-21T06:47:08.413Z,18.45
2023-04-21T06:52:12.562Z,17.48
2023-04-21T06:57:17.397Z,17.35
2023-04-21T07:02:23.081Z,22.00
2023-04-21T07:12:30.979Z,25.33
2023-04-21T07:17:36.542Z,16.13
2023-04-21T07:22:40.660Z,16.33
2023-04-21T07:27:44.779Z,14.18
2023-04-21T07:32:50.281Z,17.75
2023-04-21T07:37:54.474Z,93.45
2023-04-21T07:42:58.870Z,14.90
2023-04-21T07:48:06.273Z,14.77
2023-04-21T07:53:10.685Z,16.25
2023-04-21T07:58:14.799Z,11.48
2023-04-21T08:03:22.852Z,16.98
2023-04-21T08:08:30.203Z,14.73
2023-04-21T08:13:36.282Z,24.27
2023-04-21T08:18:41.766Z,15.38
2023-04-21T08:23:46.027Z,9.32
2023-04-21T08:28:50.153Z,10.73
2023-04-21T08:34:01.998Z,13.05
2023-04-21T08:39:07.299Z,16.98
2023-04-21T08:44:12.206Z,12.65
2023-04-21T08:49:21.095Z,18.00
2023-04-21T08:54:25.978Z,13.57
2023-04-21T08:59:30.842Z,13.18
2023-04-21T09:04:36.690Z,6.75
2023-04-21T09:09:56.176Z,12.55
2023-04-21T09:15:01.153Z,5.88
2023-04-21T09:20:18.713Z,10.73
2023-04-21T09:25:23.828Z,6.32
2023-04-21T09:30:28.548Z,4.18
2023-04-21T09:35:37.520Z,8.00
2023-04-21T09:40:41.959Z,7.82
2023-04-21T09:45:47.072Z,12.40
2023-04-21T09:56:03.826Z,6.72
2023-04-21T10:01:10.456Z,9.70
2023-04-21T10:06:16.310Z,8.82
2023-04-21T10:11:21.383Z,10.60
2023-04-21T10:16:26.724Z,7.90
2023-04-21T10:21:37.972Z,6.40
2023-04-21T10:26:41.869Z,10.00
2023-04-21T10:31:53.782Z,7.55
2023-04-21T10:37:19.799Z,5.40
2023-04-21T10:42:34.859Z,14.50
2023-04-21T10:47:45.465Z,12.07
2023-04-21T10:52:56.824Z,8.13
2023-04-21T10:58:03.989Z,4.93
2023-04-21T11:03:09.465Z,7.40
2023-04-21T11:13:21.876Z,8.48
2023-04-21T11:18:43.385Z,9.50
2023-04-21T11:23:53.641Z,5.40
2023-04-21T11:28:57.729Z,8.80
2023-04-21T11:34:02.470Z,3.25
2023-04-21T11:39:10.128Z,11.40
2023-04-21T11:44:15.529Z,4.95
2023-04-21T11:49:19.860Z,4.97
2023-04-21T11:54:25.606Z,5.53
2023-04-21T11:59:29.738Z,4.75
2023-04-21T12:04:34.613Z,4.93
2023-04-21T12:14:46.405Z,6.47
2023-04-21T12:19:50.744Z,10.90
2023-04-21T12:24:56.320Z,4.73
2023-04-21T12:30:00.541Z,6.72
2023-04-21T12:35:05.362Z,9.73
2023-04-21T12:40:11.791Z,7.63
2023-04-21T12:45:15.899Z,5.30
2023-04-21T12:50:19.893Z,3.67
2023-04-21T12:55:25.557Z,4.53
2023-04-21T13:00:29.674Z,7.68
2023-04-21T13:05:33.634Z,4.28
2023-04-21T13:10:38.927Z,12.60
2023-04-21T13:15:43.065Z,4.60
2023-04-21T13:20:47.094Z,8.23
2023-04-21T13:25:52.958Z,4.07
2023-04-21T13:30:57.469Z,6.55
2023-04-21T13:36:01.461Z,4.07
2023-04-21T13:41:07.086Z,4.75
2023-04-21T13:46:10.994Z,7.93
2023-04-21T13:51:15.037Z,5.30
2023-04-21T13:56:20.598Z,4.70
2023-04-21T14:01:24.612Z,6.00
2023-04-21T14:06:28.753Z,8.05
2023-04-21T14:11:34.191Z,7.00
2023-04-21T14:16:38.924Z,10.90
2023-04-21T14:21:43.187Z,5.72
2023-04-21T14:26:48.806Z,5.93
2023-04-21T14:31:53.976Z,4.60
2023-04-21T14:42:03.236Z,6.72
2023-04-21T14:47:10.458Z,10.77
2023-04-21T14:52:14.996Z,8.23
2023-04-21T14:57:21.850Z,10.18
2023-04-21T15:02:26.612Z,5.90
2023-04-21T15:07:31.119Z,8.60
2023-04-21T15:12:36.864Z,7.00
2023-04-21T15:17:41.094Z,5.57
2023-04-21T15:22:45.214Z,5.45
2023-04-21T15:27:50.518Z,8.30
2023-04-21T15:37:58.309Z,6.57
2023-04-21T15:43:03.730Z,6.43
2023-04-21T15:48:08.348Z,5.13
2023-04-21T15:53:12.316Z,6.23
2023-04-21T15:58:17.970Z,6.25
2023-04-21T16:03:22.615Z,6.15
2023-04-21T16:08:26.745Z,5.38
2023-04-21T16:13:32.204Z,7.75
2023-04-21T16:18:36.752Z,7.00
2023-04-21T16:23:41.097Z,10.65
2023-04-21T16:28:46.740Z,8.67
2023-04-21T16:33:52.738Z,7.53
2023-04-21T16:38:57.189Z,7.82
2023-04-21T16:44:02.969Z,11.30
2023-04-21T16:49:07.231Z,7.28
2023-04-21T16:54:11.582Z,7.38
2023-04-21T16:59:19.406Z,6.55
2023-04-21T17:04:23.665Z,13.20
2023-04-21T17:09:29.439Z,10.98
2023-04-21T17:14:35.262Z,10.02
2023-04-21T17:20:38.058Z,10.50
2023-04-21T17:25:42.717Z,9.82
2023-04-21T17:31:03.383Z,7.30
2023-04-21T17:36:19.851Z,8.38
2023-04-21T17:41:24.208Z,10.88
2023-04-21T17:46:30.616Z,12.23
2023-04-21T17:51:37.313Z,15.38
2023-04-21T17:56:41.807Z,16.13
2023-04-21T18:01:47.523Z,21.35
2023-04-21T18:06:52.389Z,16.65
2023-04-21T18:11:57.094Z,22.23
2023-04-21T18:17:03.288Z,15.30
2023-04-21T18:22:07.481Z,16.25
2023-04-21T18:27:11.545Z,18.88
2023-04-21T18:32:18.953Z,14.40
2023-04-21T18:37:23.142Z,12.57
2023-04-21T18:42:28.835Z,13.85
2023-04-21T18:47:35.768Z,12.27
2023-04-21T18:52:40.043Z,10.82
2023-04-21T18:57:44.348Z,9.85
2023-04-21T19:02:51.392Z,14.30
2023-04-21T19:07:55.638Z,20.30
2023-04-21T19:12:59.948Z,22.10
2023-04-21T19:18:05.965Z,26.77
2023-04-21T19:23:10.266Z,26.83
2023-04-21T19:28:14.307Z,18.45
2023-04-21T19:33:20.362Z,29.83
2023-04-21T19:38:24.645Z,29.70
2023-04-21T19:43:28.786Z,22.40
2023-04-21T19:48:34.350Z,41.40
2023-04-21T19:53:39.060Z,34.97
2023-04-21T19:58:43.590Z,53.60
2023-04-21T20:03:49.196Z,37.88
2023-04-21T20:08:53.755Z,40.25
2023-04-21T20:13:58.205Z,35.63
2023-04-21T20:19:04.564Z,33.92
2023-04-21T20:24:10.475Z,30.35
2023-04-21T20:34:20.073Z,67.97
2023-04-21T20:39:25.244Z,51.22
2023-04-21T20:44:31.534Z,49.05
2023-04-21T20:49:37.525Z,45.47
2023-04-21T20:54:42.258Z,44.72
2023-04-21T20:59:46.630Z,41.75
2023-04-21T21:04:52.324Z,71.90
2023-04-21T21:09:57.285Z,57.75
2023-04-21T21:15:01.697Z,29.93
2023-04-21T21:20:08.946Z,24.15
2023-04-21T21:25:14.068Z,24.75
2023-04-21T21:30:18.294Z,22.93
2023-04-21T21:35:27.499Z,48.70
2023-04-21T21:40:42.578Z,44.88
2023-04-21T21:45:50.177Z,40.92
2023-04-21T21:50:56.182Z,33.38
2023-04-21T21:56:01.229Z,29.73
2023-04-21T22:01:05.736Z,110.90
2023-04-21T22:06:13.693Z,36.63
2023-04-21T22:11:20.389Z,38.20
2023-04-21T22:16:24.719Z,50.20
2023-04-21T22:21:31.970Z,47.08
2023-04-21T22:26:36.455Z,40.20
2023-04-21T22:31:40.774Z,94.57
2023-04-21T22:36:46.421Z,49.33
2023-04-21T22:41:53.257Z,45.70
2023-04-21T22:46:57.451Z,41.72
2023-04-21T22:52:02.902Z,39.95
2023-04-21T22:57:07.495Z,61.80
2023-04-21T23:02:12.122Z,50.85
2023-04-21T23:07:17.700Z,71.68
2023-04-21T23:12:21.804Z,49.78
2023-04-21T23:17:26.146Z,54.72
2023-04-21T23:22:31.872Z,52.85
2023-04-21T23:27:36.179Z,53.55
2023-04-21T23:32:41.358Z,57.78
2023-04-21T23:37:47.258Z,58.15
2023-04-21T23:42:51.409Z,47.55
2023-04-21T23:47:55.446Z,56.45
2023-04-21T23:53:01.170Z,57.33
2023-04-21T23:58:05.398Z,53.30
